createdAt,value
2019-05-10T00:00:07.554Z,70.93
2019-05-10T00:02:54.037Z,71.27
2019-05-10T00:05:39.973Z,71.86
2019-05-10T00:08:36.474Z,72.59
2019-05-10T00:11:32.813Z,72.80
2019-05-10T00:14:20.876Z,73.35
2019-05-10T00:16:49.715Z,74.15
2019-05-10T00:19:16.777Z,74.16
2019-05-10T00:21:43.954Z,74.01
2019-05-10T00:24:10.987Z,73.45
2019-05-10T00:26:38.037Z,73.06
2019-05-10T00:29:05.498Z,72.54
2019-05-10T00:31:32.629Z,72.45
2019-05-10T00:33:59.762Z,72.23
2019-05-10T00:36:26.957Z,71.80
2019-05-10T00:38:55.214Z,71.48
2019-05-10T00:41:22.269Z,70.95
2019-05-10T00:43:49.507Z,71.33
2019-05-10T00:46:16.564Z,71.39
2019-05-10T00:48:43.645Z,71.13
2019-05-10T00:51:10.666Z,70.69
2019-05-10T00:53:39.651Z,70.37
2019-05-10T00:56:06.681Z,70.12
2019-05-10T00:58:33.749Z,69.75
2019-05-10T01:01:00.900Z,69.62
2019-05-10T01:03:28.012Z,69.23
2019-05-10T01:05:55.080Z,69.35
2019-05-10T01:08:22.166Z,68.82
2019-05-10T01:10:49.309Z,68.52
2019-05-10T01:13:16.703Z,68.25
2019-05-10T01:15:46.421Z,68.27
2019-05-10T01:18:13.123Z,68.15
2019-05-10T01:20:40.210Z,68.37
2019-05-10T01:23:07.241Z,68.31
2019-05-10T01:25:36.297Z,68.49
2019-05-10T01:28:03.512Z,68.68
2019-05-10T01:30:30.689Z,68.59
2019-05-10T01:32:57.898Z,68.31
2019-05-10T01:35:25.050Z,68.68
2019-05-10T01:37:52.415Z,68.82
2019-05-10T01:40:19.559Z,68.91
2019-05-10T01:42:46.954Z,69.60
2019-05-10T01:45:14.194Z,69.53
2019-05-10T01:47:41.252Z,69.77
2019-05-10T01:50:08.483Z,70.15
2019-05-10T01:52:35.586Z,70.58
2019-05-10T01:55:03.210Z,70.79
2019-05-10T01:57:30.291Z,70.58
2019-05-10T01:59:57.537Z,70.77
2019-05-10T02:02:24.542Z,71.36
2019-05-10T02:04:53.402Z,71.87
2019-05-10T02:07:20.446Z,72.47
2019-05-10T02:09:47.572Z,73.36
2019-05-10T02:12:14.864Z,73.74
2019-05-10T02:14:41.918Z,73.97
2019-05-10T02:17:09.058Z,75.26
2019-05-10T02:19:36.116Z,75.58
2019-05-10T02:22:03.528Z,76.24
2019-05-10T02:24:30.606Z,76.28
2019-05-10T02:26:57.883Z,76.20
2019-05-10T02:29:24.934Z,75.93
2019-05-10T02:31:51.991Z,75.92
2019-05-10T02:34:19.181Z,75.65
2019-05-10T02:36:46.209Z,75.52
2019-05-10T02:39:13.266Z,75.17
2019-05-10T02:41:40.319Z,75.33
2019-05-10T02:44:07.389Z,75.12
2019-05-10T02:46:34.549Z,75.20
2019-05-10T02:49:01.632Z,75.16
2019-05-10T02:51:28.678Z,75.40
2019-05-10T02:53:55.937Z,75.62
2019-05-10T02:56:30.568Z,75.87
2019-05-10T02:58:54.391Z,76.81
2019-05-10T03:01:24.027Z,76.76
2019-05-10T03:03:53.619Z,76.53
2019-05-10T03:06:22.872Z,76.31
2019-05-10T03:08:51.220Z,76.50
2019-05-10T03:11:18.604Z,76.83
2019-05-10T03:13:48.665Z,77.44
2019-05-10T03:16:18.681Z,77.50
2019-05-10T03:18:47.839Z,77.35
2019-05-10T03:21:16.865Z,77.55
2019-05-10T03:23:43.954Z,77.61
2019-05-10T03:26:11.019Z,77.36
2019-05-10T03:28:38.087Z,77.20
2019-05-10T03:31:05.399Z,77.47
2019-05-10T03:33:32.465Z,77.80
2019-05-10T03:35:59.583Z,77.85
2019-05-10T03:38:28.640Z,77.72
2019-05-10T03:40:55.705Z,77.48
2019-05-10T03:43:22.777Z,77.64
2019-05-10T03:45:49.867Z,77.50
2019-05-10T03:48:16.975Z,77.37
2019-05-10T03:50:44.101Z,77.15
2019-05-10T03:53:11.181Z,76.99
2019-05-10T03:55:38.233Z,76.72
2019-05-10T03:58:05.473Z,77.05
2019-05-10T04:00:32.491Z,77.23
2019-05-10T04:02:59.548Z,77.77
2019-05-10T04:05:26.603Z,77.42
2019-05-10T04:07:53.674Z,77.58
2019-05-10T04:10:21.193Z,77.65
2019-05-10T04:12:49.784Z,77.88
2019-05-10T04:15:16.980Z,78.28
2019-05-10T04:17:44.072Z,78.21
2019-05-10T04:20:11.330Z,78.35
2019-05-10T04:22:38.382Z,77.75
2019-05-10T04:25:06.094Z,77.15
2019-05-10T04:27:33.460Z,77.17
2019-05-10T04:30:00.659Z,76.75
2019-05-10T04:32:30.525Z,76.03
2019-05-10T04:34:57.615Z,76.21
2019-05-10T04:37:24.678Z,75.70
2019-05-10T04:39:51.731Z,75.21
2019-05-10T04:42:18.754Z,74.75
2019-05-10T04:44:46.032Z,74.18
2019-05-10T04:47:13.095Z,73.37
2019-05-10T04:49:41.359Z,72.67
2019-05-10T04:52:11.184Z,72.67
2019-05-10T04:54:38.290Z,71.26
2019-05-10T04:57:05.419Z,70.20
2019-05-10T04:59:32.475Z,69.38
2019-05-10T05:01:59.687Z,69.24
2019-05-10T05:04:26.883Z,68.50
2019-05-10T05:06:54.025Z,68.81
2019-05-10T05:09:21.085Z,69.38
2019-05-10T05:11:48.129Z,68.88
2019-05-10T05:14:15.186Z,69.24
2019-05-10T05:16:42.248Z,67.25
2019-05-10T05:19:09.330Z,67.14
2019-05-10T05:21:36.434Z,66.57
2019-05-10T05:24:03.485Z,65.29
2019-05-10T05:26:30.649Z,64.72
2019-05-10T05:28:57.726Z,65.21
2019-05-10T05:31:24.797Z,65.50
2019-05-10T05:33:51.851Z,65.25
2019-05-10T05:36:18.936Z,64.87
2019-05-10T05:38:46.930Z,64.59
2019-05-10T05:41:15.124Z,64.06
2019-05-10T05:43:46.512Z,64.03
2019-05-10T05:46:14.560Z,63.80
2019-05-10T05:48:41.960Z,64.35
2019-05-10T05:51:09.035Z,62.99
2019-05-10T05:53:42.447Z,62.30
2019-05-10T05:56:12.668Z,63.01
2019-05-10T05:58:44.572Z,62.53
2019-05-10T06:01:07.728Z,62.51
2019-05-10T06:03:34.790Z,61.39
2019-05-10T06:06:15.531Z,61.55
2019-05-10T06:08:32.202Z,61.25
2019-05-10T06:11:00.061Z,61.48
2019-05-10T06:13:30.341Z,61.39
2019-05-10T06:15:59.895Z,60.89
2019-05-10T06:18:25.547Z,59.97
2019-05-10T06:20:56.868Z,59.50
2019-05-10T06:23:29.332Z,58.47
2019-05-10T06:25:53.939Z,59.21
2019-05-10T06:28:28.677Z,59.96
2019-05-10T06:30:50.044Z,59.34
2019-05-10T06:33:17.085Z,56.68
2019-05-10T06:35:44.135Z,56.22
2019-05-10T06:38:11.217Z,55.00
2019-05-10T06:40:46.537Z,56.54
2019-05-10T06:43:13.515Z,55.00
2019-05-10T06:45:37.813Z,54.68
2019-05-10T06:48:04.987Z,53.62
2019-05-10T06:50:32.064Z,53.06
2019-05-10T06:53:00.375Z,52.49
2019-05-10T06:55:28.047Z,52.17
2019-05-10T06:57:59.480Z,53.09
2019-05-10T07:00:24.143Z,52.63
2019-05-10T07:02:51.173Z,52.76
2019-05-10T07:05:19.458Z,51.53
2019-05-10T07:07:46.737Z,51.33
2019-05-10T07:10:18.948Z,50.72
2019-05-10T07:12:42.956Z,52.44
2019-05-10T07:15:12.059Z,49.90
2019-05-10T07:17:45.311Z,49.57
2019-05-10T07:20:08.167Z,49.69
2019-05-10T07:22:35.189Z,52.07
2019-05-10T07:25:04.772Z,51.98
2019-05-10T07:27:37.047Z,49.14
2019-05-10T07:30:01.985Z,48.74
2019-05-10T07:32:30.580Z,49.47
2019-05-10T07:35:00.817Z,48.69
2019-05-10T07:37:28.856Z,48.10
2019-05-10T07:39:55.930Z,48.14
2019-05-10T07:42:23.112Z,50.99
2019-05-10T07:44:50.169Z,47.69
2019-05-10T07:47:23.942Z,49.16
2019-05-10T07:49:48.342Z,47.71
2019-05-10T07:52:15.494Z,50.90
2019-05-10T07:54:45.250Z,50.29
2019-05-10T07:57:12.523Z,51.10
2019-05-10T07:59:50.172Z,46.91
2019-05-10T08:02:13.071Z,45.50
2019-05-10T08:04:38.477Z,46.48
2019-05-10T08:07:09.792Z,43.44
2019-05-10T08:09:51.224Z,41.80
2019-05-10T08:12:35.225Z,41.90
2019-05-10T08:15:02.037Z,45.62
2019-05-10T08:17:29.086Z,46.77
2019-05-10T08:19:56.421Z,42.77
2019-05-10T08:22:23.465Z,42.65
2019-05-10T08:24:54.473Z,47.42
2019-05-10T08:27:19.490Z,46.57
2019-05-10T08:29:52.981Z,50.07
2019-05-10T08:32:19.391Z,48.15
2019-05-10T08:34:52.091Z,41.67
2019-05-10T08:37:19.403Z,43.74
2019-05-10T08:39:47.876Z,43.82
2019-05-10T08:42:32.115Z,45.40
2019-05-10T08:44:42.740Z,44.78
2019-05-10T08:47:16.183Z,42.69
2019-05-10T08:49:52.227Z,43.39
2019-05-10T08:52:07.808Z,43.86
2019-05-10T08:54:34.854Z,45.73
2019-05-10T08:57:05.390Z,44.34
2019-05-10T08:59:31.224Z,45.03
2019-05-10T09:01:58.286Z,44.14
2019-05-10T09:04:33.465Z,43.37
2019-05-10T09:06:59.809Z,45.90
2019-05-10T09:09:25.097Z,44.89
2019-05-10T09:11:57.837Z,42.24
2019-05-10T09:14:24.194Z,41.45
2019-05-10T09:17:00.729Z,39.62
2019-05-10T09:19:27.618Z,39.84
2019-05-10T09:21:52.829Z,44.61
2019-05-10T09:24:18.513Z,43.25
2019-05-10T09:26:51.609Z,44.83
2019-05-10T09:29:16.780Z,41.07
2019-05-10T09:31:50.467Z,38.51
2019-05-10T09:34:14.596Z,34.90
2019-05-10T09:36:46.714Z,35.39
2019-05-10T09:39:17.545Z,33.84
2019-05-10T09:41:42.159Z,33.65
2019-05-10T09:44:10.086Z,34.66
2019-05-10T09:46:37.192Z,36.05
2019-05-10T09:49:14.076Z,38.90
2019-05-10T09:51:33.356Z,35.69
2019-05-10T09:54:00.634Z,32.23
2019-05-10T09:56:36.399Z,34.67
2019-05-10T09:58:58.464Z,32.23
2019-05-10T10:01:28.199Z,33.30
2019-05-10T10:03:58.351Z,33.28
2019-05-10T10:06:29.526Z,30.16
2019-05-10T10:08:57.777Z,28.98
2019-05-10T10:11:27.645Z,27.00
2019-05-10T10:13:59.174Z,26.49
2019-05-10T10:16:23.482Z,29.89
2019-05-10T10:18:50.663Z,29.52
2019-05-10T10:21:18.942Z,29.11
2019-05-10T10:23:46.997Z,32.44
2019-05-10T10:26:20.812Z,35.38
2019-05-10T10:28:43.152Z,35.64
2019-05-10T10:31:10.172Z,36.20
2019-05-10T10:33:37.933Z,31.95
2019-05-10T10:36:09.918Z,30.98
2019-05-10T10:38:37.178Z,31.04
2019-05-10T10:41:03.756Z,30.83
2019-05-10T10:43:31.210Z,31.26
2019-05-10T10:45:58.523Z,32.71
2019-05-10T10:48:28.275Z,27.98
2019-05-10T10:50:56.219Z,31.01
2019-05-10T10:53:23.623Z,28.90
2019-05-10T10:55:54.581Z,31.90
2019-05-10T10:58:19.911Z,32.79
2019-05-10T11:00:48.107Z,36.08
2019-05-10T11:03:15.635Z,35.30
2019-05-10T11:05:43.010Z,36.40
2019-05-10T11:08:12.125Z,35.20
2019-05-10T11:10:40.488Z,37.30
2019-05-10T11:13:14.024Z,36.79
2019-05-10T11:15:38.637Z,33.85
2019-05-10T11:18:07.192Z,34.64
2019-05-10T11:20:35.382Z,34.74
2019-05-10T11:23:02.431Z,33.07
2019-05-10T11:25:30.000Z,34.08
2019-05-10T11:27:59.272Z,29.22
2019-05-10T11:30:26.056Z,28.22
2019-05-10T11:32:53.100Z,26.24
2019-05-10T11:35:30.312Z,25.96
2019-05-10T11:37:50.890Z,26.86
2019-05-10T11:40:27.760Z,30.62
2019-05-10T11:42:51.035Z,31.79
2019-05-10T11:45:20.905Z,32.17
2019-05-10T11:47:53.393Z,31.37
2019-05-10T11:50:28.980Z,32.21
2019-05-10T11:52:46.373Z,33.22
2019-05-10T11:55:13.518Z,33.40
2019-05-10T11:57:44.174Z,34.11
2019-05-10T12:00:23.886Z,26.68
2019-05-10T12:03:01.092Z,26.95
2019-05-10T12:05:17.753Z,30.48
2019-05-10T12:10:16.824Z,32.31
2019-05-10T12:12:54.055Z,32.21
2019-05-10T12:15:24.511Z,29.95
2019-05-10T12:17:47.634Z,31.63
2019-05-10T12:20:16.868Z,28.92
2019-05-10T12:22:47.429Z,31.26
2019-05-10T12:25:35.909Z,28.52
2019-05-10T12:26:49.399Z,31.08
2019-05-10T12:27:48.686Z,28.18
2019-05-10T12:30:15.922Z,25.58
2019-05-10T12:32:55.624Z,26.37
2019-05-10T12:35:11.886Z,27.06
2019-05-10T12:37:39.562Z,23.83
2019-05-10T12:40:11.880Z,21.20
2019-05-10T12:42:37.132Z,24.09
2019-05-10T12:45:11.695Z,27.96
2019-05-10T12:47:41.284Z,30.21
2019-05-10T12:50:09.185Z,30.76
2019-05-10T12:52:36.329Z,28.36
2019-05-10T12:55:03.632Z,30.96
2019-05-10T12:57:30.838Z,31.73
2019-05-10T12:59:58.236Z,33.00
2019-05-10T13:02:25.572Z,32.77
2019-05-10T13:04:54.150Z,30.80
2019-05-10T13:07:21.500Z,26.13
2019-05-10T13:09:50.151Z,26.83
2019-05-10T13:12:17.587Z,28.21
2019-05-10T13:14:46.585Z,27.02
2019-05-10T13:17:16.884Z,26.08
2019-05-10T13:19:42.658Z,28.44
2019-05-10T13:22:09.721Z,25.28
2019-05-10T13:24:36.798Z,25.79
2019-05-10T13:27:04.466Z,28.53
2019-05-10T13:29:31.536Z,30.48
2019-05-10T13:31:59.593Z,27.00
2019-05-10T13:34:26.685Z,23.00
2019-05-10T13:36:53.762Z,22.74
2019-05-10T13:39:25.704Z,26.17
2019-05-10T13:41:49.983Z,26.58
2019-05-10T13:44:17.013Z,29.28
2019-05-10T13:46:44.064Z,27.52
2019-05-10T13:49:12.587Z,20.94
2019-05-10T13:51:39.935Z,19.64
2019-05-10T13:54:07.002Z,22.77
2019-05-10T13:56:34.150Z,25.99
2019-05-10T13:59:15.359Z,22.52
2019-05-10T14:01:34.323Z,23.31
2019-05-10T14:04:10.661Z,23.81
2019-05-10T14:06:49.503Z,20.74
2019-05-10T14:10:10.826Z,20.84
2019-05-10T14:15:54.307Z,22.08
2019-05-10T14:18:23.203Z,25.47
2019-05-10T14:20:53.969Z,28.00
2019-05-10T14:23:22.450Z,29.89
2019-05-10T14:25:49.671Z,28.82
2019-05-10T14:28:17.464Z,29.61
2019-05-10T14:30:46.892Z,29.88
2019-05-10T14:33:17.237Z,31.04
2019-05-10T14:35:44.646Z,29.92
2019-05-10T14:38:12.005Z,27.47
2019-05-10T14:40:39.110Z,27.70
2019-05-10T14:43:06.184Z,25.62
2019-05-10T14:45:33.248Z,25.22
2019-05-10T14:48:00.432Z,24.60
2019-05-10T14:50:28.480Z,25.76
2019-05-10T14:52:55.750Z,26.17
2019-05-10T14:55:28.041Z,25.57
2019-05-10T14:57:51.853Z,26.05
2019-05-10T15:00:28.234Z,26.28
2019-05-10T15:03:19.276Z,26.81
2019-05-10T15:05:55.614Z,26.00
2019-05-10T15:08:20.270Z,28.21
2019-05-10T15:10:47.297Z,30.43
2019-05-10T15:13:19.578Z,30.20
2019-05-10T15:15:43.449Z,30.43
2019-05-10T15:18:10.554Z,29.92
2019-05-10T15:20:37.609Z,29.73
2019-05-10T15:23:11.598Z,30.63
2019-05-10T15:25:55.451Z,30.37
2019-05-10T15:28:07.843Z,32.65
2019-05-10T15:30:39.322Z,32.88
2019-05-10T15:33:04.203Z,32.46
2019-05-10T15:35:32.708Z,32.31
2019-05-10T15:37:59.824Z,32.18
2019-05-10T15:40:26.882Z,31.95
2019-05-10T15:42:53.971Z,29.79
2019-05-10T15:45:21.344Z,29.13
2019-05-10T15:47:51.742Z,29.82
2019-05-10T15:50:18.767Z,30.19
2019-05-10T15:52:48.529Z,31.77
2019-05-10T15:55:16.429Z,30.99
2019-05-10T15:57:44.416Z,31.54
2019-05-10T16:00:11.737Z,29.90
2019-05-10T16:02:38.917Z,27.31
2019-05-10T16:05:23.212Z,27.57
2019-05-10T16:07:51.605Z,29.68
2019-05-10T16:10:28.293Z,30.48
2019-05-10T16:12:55.733Z,31.36
2019-05-10T16:15:22.791Z,32.91
2019-05-10T16:17:53.649Z,32.87
2019-05-10T16:20:22.876Z,32.93
2019-05-10T16:22:51.089Z,32.13
2019-05-10T16:25:18.162Z,32.03
2019-05-10T16:27:45.269Z,31.81
2019-05-10T16:30:17.827Z,31.65
2019-05-10T16:32:41.957Z,28.91
2019-05-10T16:35:14.592Z,26.17
2019-05-10T16:37:39.281Z,27.70
2019-05-10T16:40:07.250Z,28.24
2019-05-10T16:42:35.891Z,30.35
2019-05-10T16:45:03.651Z,30.97
2019-05-10T16:47:31.072Z,30.76
2019-05-10T16:49:58.236Z,26.83
2019-05-10T16:52:26.329Z,25.47
2019-05-10T16:54:57.871Z,25.71
2019-05-10T16:57:23.651Z,24.09
2019-05-10T16:59:50.906Z,23.00
2019-05-10T17:02:21.351Z,22.90
2019-05-10T17:04:50.304Z,25.49
2019-05-10T17:07:20.478Z,28.16
2019-05-10T17:10:01.098Z,29.53
2019-05-10T17:16:21.581Z,33.78
2019-05-10T17:18:49.924Z,34.60
2019-05-10T17:21:17.816Z,34.88
2019-05-10T17:23:46.829Z,35.26
2019-05-10T17:26:14.090Z,35.31
2019-05-10T17:28:41.271Z,34.96
2019-05-10T17:31:09.713Z,34.53
2019-05-10T17:33:42.672Z,34.89
2019-05-10T17:36:08.843Z,35.13
2019-05-10T17:38:35.570Z,35.15
2019-05-10T17:41:02.684Z,35.39
2019-05-10T17:43:29.955Z,35.93
2019-05-10T17:45:57.021Z,36.06
2019-05-10T17:48:25.136Z,35.29
2019-05-10T17:50:52.317Z,35.47
2019-05-10T17:53:22.347Z,34.96
2019-05-10T17:55:55.860Z,34.31
2019-05-10T17:58:19.212Z,33.43
2019-05-10T18:00:46.368Z,33.93
2019-05-10T18:03:14.860Z,34.19
2019-05-10T18:05:46.591Z,33.54
2019-05-10T18:08:11.285Z,34.35
2019-05-10T18:10:38.883Z,34.04
2019-05-10T18:13:06.169Z,34.07
2019-05-10T18:15:34.913Z,34.49
2019-05-10T18:18:02.823Z,35.69
2019-05-10T18:20:41.026Z,35.43
2019-05-10T18:23:00.257Z,35.08
2019-05-10T18:25:29.327Z,35.90
2019-05-10T18:27:58.485Z,36.10
2019-05-10T18:30:25.625Z,36.39
2019-05-10T18:33:11.628Z,36.77
2019-05-10T18:35:35.541Z,36.52
2019-05-10T18:38:21.234Z,37.17
2019-05-10T18:41:19.069Z,37.49
2019-05-10T18:43:58.240Z,38.13
2019-05-10T18:46:29.794Z,38.22
2019-05-10T18:49:06.811Z,39.06
2019-05-10T18:51:36.146Z,39.25
2019-05-10T18:54:11.661Z,39.49
2019-05-10T18:56:54.780Z,39.90
2019-05-10T18:59:22.075Z,39.93
2019-05-10T19:01:51.146Z,39.95
2019-05-10T19:04:19.200Z,40.26
2019-05-10T19:06:49.869Z,40.80
2019-05-10T19:09:15.282Z,40.97
2019-05-10T19:11:42.362Z,41.01
2019-05-10T19:14:11.647Z,41.42
2019-05-10T19:16:39.004Z,41.39
2019-05-10T19:19:09.442Z,41.29
2019-05-10T19:21:37.997Z,41.58
2019-05-10T19:24:05.583Z,41.74
2019-05-10T19:26:32.824Z,41.81
2019-05-10T19:29:05.379Z,42.48
2019-05-10T19:31:31.531Z,43.23
2019-05-10T19:33:59.583Z,44.18
2019-05-10T19:36:28.562Z,44.79
2019-05-10T19:38:55.762Z,45.01
2019-05-10T19:41:25.569Z,45.91
2019-05-10T19:43:55.826Z,46.63
2019-05-10T19:46:22.824Z,47.24
2019-05-10T19:48:50.250Z,46.93
2019-05-10T19:51:22.865Z,47.68
2019-05-10T19:53:50.153Z,48.17
2019-05-10T19:56:21.429Z,48.08
2019-05-10T19:58:49.502Z,48.20
2019-05-10T20:01:16.705Z,48.31
2019-05-10T20:03:43.778Z,48.55
2019-05-10T20:06:11.604Z,48.73
2019-05-10T20:08:38.739Z,48.69
2019-05-10T20:11:06.007Z,48.74
2019-05-10T20:13:33.093Z,48.57
2019-05-10T20:16:01.351Z,48.79
2019-05-10T20:18:28.734Z,48.90
2019-05-10T20:20:55.833Z,49.47
2019-05-10T20:23:23.030Z,49.28
2019-05-10T20:25:50.343Z,49.56
2019-05-10T20:28:20.484Z,49.10
2019-05-10T20:30:47.674Z,49.57
2019-05-10T20:33:16.856Z,49.53
2019-05-10T20:35:45.583Z,49.73
2019-05-10T20:38:12.731Z,49.42
2019-05-10T20:40:39.869Z,49.36
2019-05-10T20:43:07.364Z,49.24
2019-05-10T20:45:34.452Z,49.09
2019-05-10T20:48:02.528Z,49.66
2019-05-10T20:50:30.772Z,49.47
2019-05-10T20:52:57.879Z,49.83
2019-05-10T20:55:24.997Z,49.39
2019-05-10T20:57:52.399Z,49.00
2019-05-10T21:00:23.806Z,49.05
2019-05-10T21:02:50.917Z,49.37
2019-05-10T21:05:18.009Z,49.58
2019-05-10T21:07:45.597Z,49.33
2019-05-10T21:10:13.338Z,49.90
2019-05-10T21:12:40.637Z,49.95
2019-05-10T21:15:10.658Z,49.93
2019-05-10T21:17:38.057Z,50.00
2019-05-10T21:20:07.954Z,49.78
2019-05-10T21:22:36.459Z,50.36
2019-05-10T21:25:04.186Z,50.26
2019-05-10T21:27:31.977Z,51.41
2019-05-10T21:30:01.750Z,50.92
2019-05-10T21:32:49.030Z,50.78
2019-05-10T21:35:16.122Z,50.73
2019-05-10T21:37:43.518Z,50.81
2019-05-10T21:40:10.925Z,50.81
2019-05-10T21:42:39.324Z,50.63
2019-05-10T21:45:06.992Z,50.43
2019-05-10T21:47:34.243Z,50.38
2019-05-10T21:50:01.323Z,50.92
2019-05-10T21:52:28.382Z,51.40
2019-05-10T21:54:55.589Z,52.23
2019-05-10T21:57:22.662Z,53.33
2019-05-10T21:59:51.002Z,53.75
2019-05-10T22:02:20.982Z,53.47
2019-05-10T22:04:50.766Z,54.26
2019-05-10T22:07:18.399Z,54.63
2019-05-10T22:09:45.954Z,56.41
2019-05-10T22:12:13.335Z,55.90
2019-05-10T22:14:40.479Z,56.06
2019-05-10T22:17:07.646Z,56.13
2019-05-10T22:19:34.733Z,55.50
2019-05-10T22:22:02.480Z,55.08
2019-05-10T22:24:30.846Z,55.11
2019-05-10T22:26:57.927Z,56.19
2019-05-10T22:29:25.017Z,56.60
2019-05-10T22:31:52.523Z,56.83
2019-05-10T22:34:19.754Z,56.43
2019-05-10T22:36:49.218Z,56.74
2019-05-10T22:39:17.432Z,56.70
2019-05-10T22:41:44.568Z,57.66
2019-05-10T22:44:13.155Z,58.30
2019-05-10T22:46:40.291Z,58.91
2019-05-10T22:49:07.365Z,59.02
2019-05-10T22:51:34.571Z,59.19
2019-05-10T22:54:01.676Z,58.20
2019-05-10T22:56:37.417Z,58.54
2019-05-10T22:59:05.578Z,61.54
2019-05-10T23:01:32.900Z,61.95
2019-05-10T23:04:00.018Z,62.92
2019-05-10T23:06:27.084Z,64.62
2019-05-10T23:08:54.284Z,65.34
2019-05-10T23:11:21.379Z,64.99
2019-05-10T23:13:48.488Z,64.81
2019-05-10T23:16:15.678Z,64.56
2019-05-10T23:18:42.911Z,63.73
2019-05-10T23:21:11.034Z,63.98
2019-05-10T23:23:38.137Z,64.34
2019-05-10T23:26:05.338Z,64.90
2019-05-10T23:28:34.579Z,65.82
2019-05-10T23:31:04.463Z,66.50
2019-05-10T23:33:31.565Z,66.83
2019-05-10T23:36:02.322Z,66.64
2019-05-10T23:38:29.483Z,66.20
2019-05-10T23:40:56.560Z,66.36
2019-05-10T23:43:23.710Z,66.96
2019-05-10T23:45:51.248Z,67.16
2019-05-10T23:48:18.331Z,67.10
2019-05-10T23:50:45.389Z,67.48
2019-05-10T23:53:12.449Z,67.03
2019-05-10T23:55:39.613Z,66.28
2019-05-10T23:58:06.650Z,66.23
